createdAt,value
2022-11-14T00:01:22.820Z,12.90
2022-11-14T00:03:52.062Z,13.07
2022-11-14T00:06:22.202Z,14.93
2022-11-14T00:08:50.369Z,20.40
2022-11-14T00:11:18.668Z,24.17
2022-11-14T00:13:46.839Z,11.82
2022-11-14T00:16:15.062Z,16.05
2022-11-14T00:18:43.427Z,13.75
2022-11-14T00:21:11.608Z,11.73
2022-11-14T00:23:41.149Z,9.25
2022-11-14T00:26:09.300Z,10.32
2022-11-14T00:28:37.473Z,11.85
2022-11-14T00:31:05.956Z,10.65
2022-11-14T00:33:34.113Z,10.10
2022-11-14T00:36:02.445Z,10.85
2022-11-14T00:38:30.837Z,8.77
2022-11-14T00:41:00.500Z,7.43
2022-11-14T00:43:28.876Z,8.75
2022-11-14T00:45:57.131Z,8.43
2022-11-14T00:48:25.304Z,10.50
2022-11-14T00:50:53.482Z,7.78
2022-11-14T00:53:21.655Z,6.93
2022-11-14T00:55:49.824Z,8.00
2022-11-14T00:58:19.373Z,8.60
2022-11-14T01:00:47.623Z,8.57
2022-11-14T01:03:15.910Z,8.68
2022-11-14T01:05:44.472Z,8.70
2022-11-14T01:08:14.248Z,6.65
2022-11-14T01:10:43.135Z,7.63
2022-11-14T01:13:11.345Z,8.52
2022-11-14T01:15:45.428Z,8.27
2022-11-14T01:18:15.921Z,7.63
2022-11-14T01:20:45.244Z,8.50
2022-11-14T01:23:14.953Z,9.98
2022-11-14T01:25:44.993Z,10.02
2022-11-14T01:28:15.607Z,8.80
2022-11-14T01:30:45.602Z,10.98
2022-11-14T01:33:13.806Z,7.75
2022-11-14T01:35:41.985Z,8.88
2022-11-14T01:38:14.933Z,7.82
2022-11-14T01:40:44.039Z,9.60
2022-11-14T01:43:30.350Z,9.10
2022-11-14T01:46:02.361Z,8.82
2022-11-14T01:51:14.090Z,11.90
2022-11-14T01:53:43.020Z,8.02
2022-11-14T01:56:14.287Z,7.38
2022-11-14T01:58:46.488Z,11.70
2022-11-14T02:01:16.380Z,7.97
2022-11-14T02:03:47.062Z,8.35
2022-11-14T02:06:18.138Z,8.65
2022-11-14T02:08:46.811Z,9.27
2022-11-14T02:11:14.974Z,7.50
2022-11-14T02:13:43.243Z,9.48
2022-11-14T02:16:11.521Z,11.02
2022-11-14T02:18:41.069Z,11.68
2022-11-14T02:21:10.659Z,9.50
2022-11-14T02:23:38.837Z,11.38
2022-11-14T02:26:07.003Z,10.23
2022-11-14T02:28:35.182Z,8.40
2022-11-14T02:31:03.431Z,9.25
2022-11-14T02:33:31.588Z,8.65
2022-11-14T02:35:59.769Z,10.75
2022-11-14T02:38:29.475Z,9.27
2022-11-14T02:40:57.929Z,9.20
2022-11-14T02:43:26.111Z,9.68
2022-11-14T02:45:54.298Z,9.27
2022-11-14T02:48:22.491Z,8.50
2022-11-14T02:50:51.665Z,9.57
2022-11-14T02:53:19.852Z,9.65
2022-11-14T02:55:49.417Z,10.88
2022-11-14T02:58:17.613Z,8.55
2022-11-14T03:01:06.253Z,9.45
2022-11-14T03:03:33.959Z,10.15
2022-11-14T03:06:02.386Z,8.82
2022-11-14T03:08:30.952Z,8.52
2022-11-14T03:11:05.488Z,10.13
2022-11-14T03:13:33.750Z,10.98
2022-11-14T03:16:07.436Z,9.75
2022-11-14T03:18:36.189Z,10.95
2022-11-14T03:21:08.090Z,10.20
2022-11-14T03:26:08.269Z,9.15
2022-11-14T03:28:36.796Z,9.70
2022-11-14T03:31:05.585Z,10.57
2022-11-14T03:33:33.997Z,10.90
2022-11-14T03:36:02.486Z,9.95
2022-11-14T03:38:31.220Z,8.63
2022-11-14T03:41:00.353Z,10.70
2022-11-14T03:43:32.682Z,10.68
2022-11-14T03:46:01.295Z,9.98
2022-11-14T03:48:30.238Z,9.48
2022-11-14T03:50:59.118Z,11.50
2022-11-14T03:53:28.311Z,8.82
2022-11-14T03:55:56.882Z,10.63
2022-11-14T03:58:25.052Z,9.38
2022-11-14T04:00:56.089Z,10.20
2022-11-14T04:03:24.468Z,13.97
2022-11-14T04:05:52.830Z,13.23
2022-11-14T04:08:21.114Z,17.13
2022-11-14T04:10:49.799Z,12.02
2022-11-14T04:13:18.045Z,12.88
2022-11-14T04:15:46.238Z,10.55
2022-11-14T04:18:15.838Z,12.40
2022-11-14T04:20:44.012Z,12.77
2022-11-14T04:23:12.169Z,11.80
2022-11-14T04:25:40.353Z,12.70
2022-11-14T04:28:08.504Z,13.75
2022-11-14T04:30:36.752Z,15.20
2022-11-14T04:33:05.112Z,13.98
2022-11-14T04:35:34.665Z,15.88
2022-11-14T04:38:02.855Z,11.52
2022-11-14T04:40:31.143Z,12.65
2022-11-14T04:42:59.343Z,11.52
2022-11-14T04:45:27.686Z,12.15
2022-11-14T04:47:55.981Z,12.15
2022-11-14T04:50:24.150Z,11.80
2022-11-14T04:52:54.947Z,13.07
2022-11-14T04:55:23.135Z,11.80
2022-11-14T04:57:55.926Z,17.02
2022-11-14T05:00:24.652Z,16.23
2022-11-14T05:02:52.921Z,15.18
2022-11-14T05:05:21.152Z,11.45
2022-11-14T05:07:49.336Z,14.02
2022-11-14T05:10:19.093Z,11.57
2022-11-14T05:12:47.265Z,10.07
2022-11-14T05:15:15.550Z,13.60
2022-11-14T05:17:43.829Z,13.52
2022-11-14T05:20:13.108Z,13.13
2022-11-14T05:22:41.275Z,15.15
2022-11-14T05:25:10.433Z,11.30
2022-11-14T05:27:40.025Z,10.73
2022-11-14T05:30:09.369Z,11.77
2022-11-14T05:32:37.555Z,10.63
2022-11-14T05:35:06.637Z,11.70
2022-11-14T05:37:36.105Z,11.68
2022-11-14T05:40:04.502Z,9.68
2022-11-14T05:42:32.665Z,13.80
2022-11-14T05:45:02.247Z,11.88
2022-11-14T05:47:30.422Z,11.10
2022-11-14T05:49:58.624Z,24.35
2022-11-14T05:52:26.802Z,21.05
2022-11-14T05:54:55.549Z,30.90
2022-11-14T05:57:23.743Z,26.95
2022-11-14T05:59:51.928Z,14.43
2022-11-14T06:02:21.514Z,13.35
2022-11-14T06:04:49.786Z,13.00
2022-11-14T06:07:20.402Z,10.45
2022-11-14T06:09:48.798Z,12.55
2022-11-14T06:12:16.953Z,10.75
2022-11-14T06:14:45.118Z,10.45
2022-11-14T06:17:13.316Z,10.88
2022-11-14T06:19:42.867Z,11.32
2022-11-14T06:22:11.063Z,10.75
2022-11-14T06:24:39.237Z,14.35
2022-11-14T06:27:07.394Z,12.15
2022-11-14T06:29:35.895Z,12.02
2022-11-14T06:32:04.153Z,11.45
2022-11-14T06:34:32.325Z,14.35
2022-11-14T06:37:01.881Z,11.77
2022-11-14T06:39:30.042Z,12.00
2022-11-14T06:41:58.382Z,10.70
2022-11-14T06:44:30.680Z,9.80
2022-11-14T06:46:59.338Z,10.13
2022-11-14T06:49:27.941Z,11.18
2022-11-14T06:51:56.301Z,12.27
2022-11-14T06:54:25.907Z,10.93
2022-11-14T06:56:54.111Z,10.65
2022-11-14T06:59:22.272Z,11.98
2022-11-14T07:01:50.409Z,10.05
2022-11-14T07:04:18.750Z,12.43
2022-11-14T07:06:47.002Z,12.32
2022-11-14T07:09:15.437Z,11.43
2022-11-14T07:11:46.866Z,12.48
2022-11-14T07:14:15.144Z,17.88
2022-11-14T07:16:43.369Z,14.57
2022-11-14T07:19:12.353Z,12.93
2022-11-14T07:21:40.867Z,12.93
2022-11-14T07:24:09.503Z,16.80
2022-11-14T07:26:37.680Z,13.82
2022-11-14T07:29:07.230Z,13.55
2022-11-14T07:31:35.383Z,12.13
2022-11-14T07:34:03.548Z,12.18
2022-11-14T07:36:31.717Z,11.60
2022-11-14T07:38:59.888Z,19.05
2022-11-14T07:41:28.037Z,26.60
2022-11-14T07:43:57.203Z,24.75
2022-11-14T07:46:26.807Z,21.50
2022-11-14T07:48:56.034Z,21.88
2022-11-14T07:51:24.207Z,16.88
2022-11-14T07:53:54.332Z,16.73
2022-11-14T07:56:22.500Z,15.98
2022-11-14T07:58:50.675Z,17.85
2022-11-14T08:01:18.902Z,17.08
2022-11-14T08:03:48.502Z,30.02
2022-11-14T08:06:18.027Z,20.05
2022-11-14T08:08:46.281Z,19.42
2022-11-14T08:11:23.012Z,15.75
2022-11-14T08:14:02.737Z,15.43
2022-11-14T08:16:30.948Z,14.25
2022-11-14T08:19:00.645Z,15.70
2022-11-14T08:21:28.839Z,12.85
2022-11-14T08:23:57.017Z,16.98
2022-11-14T08:26:27.911Z,12.02
2022-11-14T08:28:58.318Z,13.27
2022-11-14T08:31:26.506Z,14.60
2022-11-14T08:33:54.860Z,11.07
2022-11-14T08:36:24.404Z,15.27
2022-11-14T08:38:55.183Z,12.65
2022-11-14T08:41:27.167Z,16.88
2022-11-14T08:43:55.373Z,16.50
2022-11-14T08:46:23.549Z,21.83
2022-11-14T08:48:51.769Z,15.85
2022-11-14T08:51:19.940Z,17.92
2022-11-14T08:53:49.511Z,18.88
2022-11-14T08:56:17.698Z,18.50
2022-11-14T08:58:45.901Z,20.42
2022-11-14T09:01:14.079Z,21.98
2022-11-14T09:03:42.382Z,17.75
2022-11-14T09:06:10.814Z,20.60
2022-11-14T09:08:38.984Z,17.08
2022-11-14T09:11:10.102Z,16.60
2022-11-14T09:13:38.435Z,17.05
2022-11-14T09:16:07.160Z,18.00
2022-11-14T09:18:35.343Z,17.92
2022-11-14T09:21:04.580Z,18.25
2022-11-14T09:23:33.744Z,18.40
2022-11-14T09:26:05.843Z,15.10
2022-11-14T09:31:04.388Z,19.63
2022-11-14T09:33:32.746Z,17.48
2022-11-14T09:36:01.891Z,17.00
2022-11-14T09:38:34.077Z,17.58
2022-11-14T09:41:23.432Z,16.15
2022-11-14T09:44:27.317Z,15.77
2022-11-14T09:47:00.011Z,14.80
2022-11-14T09:49:33.142Z,16.17
2022-11-14T09:52:10.401Z,15.98
2022-11-14T09:54:45.820Z,14.02
2022-11-14T09:57:19.085Z,15.93
2022-11-14T09:59:49.046Z,15.57
2022-11-14T10:02:29.004Z,15.98
2022-11-14T10:05:08.697Z,14.48
2022-11-14T10:07:48.583Z,16.25
2022-11-14T10:10:27.568Z,16.75
2022-11-14T10:13:02.964Z,15.73
2022-11-14T10:15:38.147Z,13.55
2022-11-14T10:18:17.810Z,15.63
2022-11-14T10:20:51.645Z,13.60
2022-11-14T10:23:32.694Z,13.38
2022-11-14T10:26:10.878Z,14.43
2022-11-14T10:28:51.863Z,13.43
2022-11-14T10:31:34.255Z,13.93
2022-11-14T10:34:09.031Z,12.93
2022-11-14T10:36:50.319Z,12.20
2022-11-14T10:39:23.249Z,13.27
2022-11-14T10:41:59.940Z,14.65
2022-11-14T10:44:37.944Z,13.85
2022-11-14T10:47:11.928Z,12.15
2022-11-14T10:49:41.146Z,12.68
2022-11-14T10:52:14.987Z,13.68
2022-11-14T10:54:47.684Z,14.13
2022-11-14T10:57:18.371Z,12.63
2022-11-14T10:59:47.390Z,15.05
2022-11-14T11:02:17.342Z,12.52
2022-11-14T11:04:46.713Z,14.88
2022-11-14T11:07:40.208Z,15.60
2022-11-14T11:10:37.600Z,13.82
2022-11-14T11:13:05.882Z,14.15
2022-11-14T11:15:41.366Z,15.70
2022-11-14T11:18:27.100Z,15.02
2022-11-14T11:21:07.479Z,13.35
2022-11-14T11:23:36.417Z,12.68
2022-11-14T11:26:07.967Z,13.35
2022-11-14T11:28:37.997Z,14.05
2022-11-14T11:31:07.691Z,12.77
2022-11-14T11:33:39.715Z,14.32
2022-11-14T11:36:13.333Z,14.13
2022-11-14T11:38:42.443Z,15.30
2022-11-14T11:42:00.885Z,16.38
2022-11-14T11:44:16.546Z,12.73
2022-11-14T11:46:53.002Z,12.65
2022-11-14T11:49:35.127Z,12.80
2022-11-14T11:54:46.321Z,13.95
2022-11-14T11:57:21.670Z,13.20
2022-11-14T11:59:53.788Z,13.85
2022-11-14T12:02:25.147Z,13.35
2022-11-14T12:04:57.216Z,11.68
2022-11-14T12:07:35.945Z,11.30
2022-11-14T12:10:13.902Z,10.63
2022-11-14T12:13:12.489Z,10.63
2022-11-14T12:15:52.584Z,12.93
2022-11-14T12:18:55.697Z,12.43
2022-11-14T12:21:43.964Z,11.65
2022-11-14T12:24:42.376Z,12.75
2022-11-14T12:27:31.130Z,12.20
2022-11-14T12:30:11.615Z,9.45
2022-11-14T12:32:43.782Z,11.15
2022-11-14T12:35:19.356Z,9.52
2022-11-14T12:37:55.404Z,9.93
2022-11-14T12:40:33.175Z,9.18
2022-11-14T12:43:02.971Z,11.65
2022-11-14T12:45:57.833Z,8.95
2022-11-14T12:48:32.766Z,8.95
2022-11-14T12:51:01.946Z,9.63
2022-11-14T12:53:42.517Z,12.23
2022-11-14T12:56:21.653Z,10.80
2022-11-14T12:59:25.275Z,10.30
2022-11-14T13:02:22.423Z,11.30
2022-11-14T13:05:14.333Z,11.75
2022-11-14T13:07:52.367Z,10.55
2022-11-14T13:10:29.931Z,9.82
2022-11-14T13:13:24.205Z,16.50
2022-11-14T13:16:11.943Z,13.00
2022-11-14T13:19:11.153Z,8.70
2022-11-14T13:21:48.645Z,8.43
2022-11-14T13:24:17.748Z,9.02
2022-11-14T13:26:52.379Z,6.90
2022-11-14T13:30:02.025Z,8.40
2022-11-14T13:33:04.456Z,8.48
2022-11-14T13:38:33.203Z,8.75
2022-11-14T13:41:12.558Z,8.27
2022-11-14T13:43:56.664Z,9.20
2022-11-14T13:46:35.132Z,6.88
2022-11-14T13:49:19.939Z,7.88
2022-11-14T13:51:48.606Z,8.65
2022-11-14T13:54:18.729Z,7.43
2022-11-14T13:57:01.031Z,6.55
2022-11-14T13:59:54.762Z,7.00
2022-11-14T14:02:40.433Z,9.05
2022-11-14T14:05:22.265Z,8.35
2022-11-14T14:08:04.048Z,7.25
2022-11-14T14:10:39.170Z,7.38
2022-11-14T14:13:19.109Z,6.18
2022-11-14T14:16:01.138Z,7.68
2022-11-14T14:21:12.630Z,6.45
2022-11-14T14:23:47.219Z,7.45
2022-11-14T14:26:26.257Z,7.47
2022-11-14T14:29:06.303Z,6.88
2022-11-14T14:31:38.917Z,7.68
2022-11-14T14:34:23.339Z,6.93
2022-11-14T14:36:53.090Z,8.13
2022-11-14T14:39:25.236Z,6.22
2022-11-14T14:41:55.909Z,8.88
2022-11-14T14:44:27.782Z,9.27
2022-11-14T14:46:57.485Z,10.77
2022-11-14T14:49:29.293Z,7.20
2022-11-14T14:51:58.883Z,7.70
2022-11-14T14:54:29.782Z,9.10
2022-11-14T14:57:01.219Z,6.85
2022-11-14T14:59:31.417Z,6.38
2022-11-14T15:02:01.324Z,7.03
2022-11-14T15:04:30.623Z,6.18
2022-11-14T15:06:58.934Z,7.78
2022-11-14T15:09:29.680Z,6.45
2022-11-14T15:12:00.503Z,6.28
2022-11-14T15:14:32.374Z,7.43
2022-11-14T15:17:02.799Z,7.95
2022-11-14T15:19:39.069Z,6.88
2022-11-14T15:22:23.792Z,8.15
2022-11-14T15:25:18.707Z,7.28
2022-11-14T15:27:48.924Z,6.93
2022-11-14T15:30:25.858Z,7.60
2022-11-14T15:32:57.066Z,6.82
2022-11-14T15:35:31.285Z,7.00
2022-11-14T15:38:42.117Z,6.75
2022-11-14T15:41:19.530Z,7.22
2022-11-14T15:43:53.124Z,6.38
2022-11-14T15:46:40.951Z,6.65
2022-11-14T15:49:18.437Z,7.35
2022-11-14T15:51:49.333Z,8.82
2022-11-14T15:54:26.063Z,9.98
2022-11-14T15:56:55.626Z,6.97
2022-11-14T15:59:24.273Z,10.48
2022-11-14T16:01:55.051Z,10.40
2022-11-14T16:04:29.455Z,6.32
2022-11-14T16:06:57.775Z,7.50
2022-11-14T16:09:26.121Z,7.07
2022-11-14T16:11:54.377Z,6.28
2022-11-14T16:14:22.566Z,7.03
2022-11-14T16:16:50.768Z,6.75
2022-11-14T16:19:19.013Z,6.57
2022-11-14T16:21:49.027Z,6.10
2022-11-14T16:24:19.753Z,6.70
2022-11-14T16:26:48.374Z,7.28
2022-11-14T16:29:17.288Z,8.85
2022-11-14T16:31:45.560Z,7.03
2022-11-14T16:34:18.654Z,6.40
2022-11-14T16:36:48.783Z,5.70
2022-11-14T16:39:17.136Z,8.18
2022-11-14T16:41:45.306Z,6.88
2022-11-14T16:44:16.971Z,8.75
2022-11-14T16:46:45.494Z,9.80
2022-11-14T16:49:15.896Z,7.85
2022-11-14T16:51:49.604Z,8.75
2022-11-14T16:54:20.565Z,7.40
2022-11-14T16:56:49.169Z,11.27
2022-11-14T16:59:17.482Z,7.60
2022-11-14T17:01:46.818Z,16.75
2022-11-14T17:04:15.098Z,19.63
2022-11-14T17:06:43.262Z,8.05
2022-11-14T17:09:14.623Z,6.45
2022-11-14T17:11:45.233Z,7.53
2022-11-14T17:14:13.701Z,11.77
2022-11-14T17:16:41.878Z,8.20
2022-11-14T17:19:10.036Z,14.20
2022-11-14T17:21:38.204Z,12.10
2022-11-14T17:24:07.074Z,13.00
2022-11-14T17:26:36.594Z,11.38
2022-11-14T17:29:06.414Z,25.70
2022-11-14T17:31:38.839Z,24.42
2022-11-14T17:34:10.623Z,14.52
2022-11-14T17:36:38.801Z,23.37
2022-11-14T17:39:07.104Z,27.67
2022-11-14T17:41:35.276Z,16.77
2022-11-14T17:44:03.725Z,10.07
2022-11-14T17:46:33.293Z,7.22
2022-11-14T17:49:01.586Z,6.97
2022-11-14T17:51:29.810Z,7.15
2022-11-14T17:53:57.986Z,6.68
2022-11-14T17:56:27.489Z,5.95
2022-11-14T17:58:55.713Z,7.72
2022-11-14T18:01:26.233Z,8.23
2022-11-14T18:04:01.661Z,5.95
2022-11-14T18:06:34.371Z,6.22
2022-11-14T18:09:05.141Z,10.65
2022-11-14T18:11:33.506Z,6.47
2022-11-14T18:14:01.700Z,6.43
2022-11-14T18:16:50.410Z,9.43
2022-11-14T18:19:20.632Z,6.60
2022-11-14T18:21:53.308Z,5.93
2022-11-14T18:24:23.647Z,7.63
2022-11-14T18:26:51.847Z,9.23
2022-11-14T18:29:20.197Z,3.95
2022-11-14T18:31:48.545Z,5.57
2022-11-14T18:34:17.025Z,7.55
2022-11-14T18:36:47.013Z,6.10
2022-11-14T18:39:15.413Z,7.82
2022-11-14T18:41:43.595Z,5.90
2022-11-14T18:44:11.766Z,5.32
2022-11-14T18:46:39.952Z,6.45
2022-11-14T18:49:08.156Z,6.20
2022-11-14T18:51:42.012Z,6.38
2022-11-14T18:54:13.877Z,5.95
2022-11-14T18:56:42.076Z,6.40
2022-11-14T18:59:10.464Z,9.07
2022-11-14T19:01:38.710Z,5.18
2022-11-14T19:04:08.959Z,5.65
2022-11-14T19:06:39.118Z,7.50
2022-11-14T19:09:11.398Z,6.72
2022-11-14T19:11:58.788Z,9.05
2022-11-14T19:14:26.958Z,8.95
2022-11-14T19:16:55.597Z,6.60
2022-11-14T19:19:23.887Z,10.75
2022-11-14T19:21:52.480Z,8.70
2022-11-14T19:24:20.673Z,8.63
2022-11-14T19:26:50.217Z,10.40
2022-11-14T19:29:18.384Z,9.40
2022-11-14T19:31:46.550Z,7.68
2022-11-14T19:34:16.073Z,7.78
2022-11-14T19:37:01.096Z,12.02
2022-11-14T19:39:29.711Z,7.63
2022-11-14T19:41:59.310Z,8.52
2022-11-14T19:44:27.485Z,7.93
2022-11-14T19:46:55.733Z,6.28
2022-11-14T19:49:23.926Z,10.32
2022-11-14T19:51:52.262Z,6.95
2022-11-14T19:54:20.505Z,8.07
2022-11-14T19:56:48.653Z,9.65
2022-11-14T19:59:23.960Z,8.50
2022-11-14T20:02:03.140Z,8.52
2022-11-14T20:04:36.843Z,9.40
2022-11-14T20:07:06.247Z,7.45
2022-11-14T20:09:34.538Z,8.25
2022-11-14T20:12:03.220Z,7.07
2022-11-14T20:14:32.854Z,8.35
2022-11-14T20:17:01.069Z,9.40
2022-11-14T20:19:29.281Z,12.95
2022-11-14T20:21:57.553Z,10.30
2022-11-14T20:24:25.769Z,8.93
2022-11-14T20:26:53.989Z,9.05
2022-11-14T20:29:22.281Z,7.43
2022-11-14T20:31:51.900Z,7.22
2022-11-14T20:34:23.116Z,9.32
2022-11-14T20:39:39.658Z,11.73
2022-11-14T20:42:07.886Z,8.80
2022-11-14T20:44:36.102Z,9.95
2022-11-14T20:47:10.639Z,8.65
2022-11-14T20:49:39.451Z,7.95
2022-11-14T20:52:07.697Z,11.88
2022-11-14T20:54:35.958Z,10.63
2022-11-14T20:57:04.253Z,7.00
2022-11-14T20:59:32.473Z,7.45
2022-11-14T21:02:00.782Z,9.77
2022-11-14T21:04:30.475Z,11.82
2022-11-14T21:06:58.673Z,10.30
2022-11-14T21:09:27.132Z,9.70
2022-11-14T21:11:55.305Z,8.30
2022-11-14T21:14:23.493Z,12.00
2022-11-14T21:16:51.689Z,10.60
2022-11-14T21:19:20.062Z,9.60
2022-11-14T21:21:49.759Z,8.30
2022-11-14T21:24:17.991Z,10.18
2022-11-14T21:26:46.273Z,10.93
2022-11-14T21:29:15.629Z,9.20
2022-11-14T21:31:46.506Z,12.68
2022-11-14T21:34:18.021Z,20.13
2022-11-14T21:36:47.270Z,13.10
2022-11-14T21:39:18.016Z,11.93
2022-11-14T21:41:48.500Z,14.05
2022-11-14T21:44:18.234Z,14.75
2022-11-14T21:46:48.514Z,20.25
2022-11-14T21:49:16.929Z,29.05
2022-11-14T21:51:45.082Z,15.27
2022-11-14T21:54:13.281Z,10.90
2022-11-14T21:56:42.835Z,11.07
2022-11-14T21:59:15.996Z,12.95
2022-11-14T22:02:03.889Z,12.57
2022-11-14T22:04:32.875Z,13.63
2022-11-14T22:07:02.334Z,10.80
2022-11-14T22:09:31.219Z,11.27
2022-11-14T22:12:02.185Z,8.55
2022-11-14T22:14:30.464Z,9.43
2022-11-14T22:16:59.060Z,10.93
2022-11-14T22:19:27.378Z,11.52
2022-11-14T22:21:55.581Z,14.30
2022-11-14T22:24:23.811Z,15.20
2022-11-14T22:26:52.004Z,12.02
2022-11-14T22:29:21.596Z,11.98
2022-11-14T22:31:52.949Z,9.38
2022-11-14T22:34:21.248Z,10.50
2022-11-14T22:36:49.441Z,10.95
2022-11-14T22:39:17.664Z,8.05
2022-11-14T22:41:45.837Z,9.63
2022-11-14T22:44:14.002Z,10.25
2022-11-14T22:46:43.543Z,10.75
2022-11-14T22:49:11.760Z,12.98
2022-11-14T22:51:39.985Z,7.72
2022-11-14T22:54:08.174Z,8.98
2022-11-14T22:56:36.351Z,9.65
2022-11-14T22:59:04.582Z,10.15
2022-11-14T23:01:33.779Z,10.23
2022-11-14T23:04:05.452Z,9.90
2022-11-14T23:06:34.871Z,9.32
2022-11-14T23:09:04.150Z,12.55
2022-11-14T23:11:33.648Z,12.15
2022-11-14T23:14:02.630Z,9.73
2022-11-14T23:16:32.097Z,8.90
2022-11-14T23:19:04.299Z,10.15
2022-11-14T23:21:35.505Z,10.48
2022-11-14T23:24:05.665Z,9.93
2022-11-14T23:26:34.308Z,9.50
2022-11-14T23:29:02.649Z,11.60
2022-11-14T23:31:31.022Z,10.05
2022-11-14T23:33:59.483Z,10.77
2022-11-14T23:36:29.060Z,8.07
2022-11-14T23:38:57.368Z,9.02
2022-11-14T23:41:26.818Z,11.20
2022-11-14T23:43:55.232Z,9.00
2022-11-14T23:46:23.476Z,9.57
2022-11-14T23:48:53.396Z,8.68
2022-11-14T23:51:21.661Z,9.50
2022-11-14T23:53:51.994Z,10.80
2022-11-14T23:56:20.354Z,9.98
2022-11-14T23:58:48.557Z,9.60
